sensor_id;sensor_type;location;lat;lon;timestamp;P1;durP1;ratioP1;P2;durP2;ratioP2
11346;SDS011;5728;42.722;23.258;2022-10-16T00:02:14;14.30;;;6.63;;
11346;SDS011;5728;42.722;23.258;2022-10-16T00:04:41;9.30;;;6.70;;
11346;SDS011;5728;42.722;23.258;2022-10-16T00:07:08;8.87;;;6.30;;
11346;SDS011;5728;42.722;23.258;2022-10-16T00:09:34;12.50;;;6.63;;
11346;SDS011;5728;42.722;23.258;2022-10-16T00:12:02;9.73;;;7.43;;
11346;SDS011;5728;42.722;23.258;2022-10-16T00:14:31;14.87;;;6.60;;
11346;SDS011;5728;42.722;23.258;2022-10-16T00:16:58;13.60;;;6.03;;
11346;SDS011;5728;42.722;23.258;2022-10-16T00:19:25;9.80;;;6.23;;
11346;SDS011;5728;42.722;23.258;2022-10-16T00:21:52;17.47;;;6.63;;
11346;SDS011;5728;42.722;23.258;2022-10-16T00:24:18;10.70;;;6.80;;
11346;SDS011;5728;42.722;23.258;2022-10-16T00:26:45;12.37;;;5.60;;
11346;SDS011;5728;42.722;23.258;2022-10-16T00:29:17;11.77;;;6.00;;
11346;SDS011;5728;42.722;23.258;2022-10-16T00:31:44;8.30;;;5.70;;
11346;SDS011;5728;42.722;23.258;2022-10-16T00:34:11;8.13;;;6.03;;
11346;SDS011;5728;42.722;23.258;2022-10-16T00:36:37;10.17;;;5.97;;
11346;SDS011;5728;42.722;23.258;2022-10-16T00:39:04;11.00;;;6.30;;
11346;SDS011;5728;42.722;23.258;2022-10-16T00:41:31;12.57;;;6.47;;
11346;SDS011;5728;42.722;23.258;2022-10-16T00:43:59;9.10;;;6.30;;
11346;SDS011;5728;42.722;23.258;2022-10-16T00:46:29;10.93;;;6.87;;
11346;SDS011;5728;42.722;23.258;2022-10-16T00:49:02;8.43;;;5.93;;
11346;SDS011;5728;42.722;23.258;2022-10-16T00:51:31;9.90;;;6.50;;
11346;SDS011;5728;42.722;23.258;2022-10-16T00:54:08;11.47;;;6.70;;
11346;SDS011;5728;42.722;23.258;2022-10-16T00:56:38;9.63;;;6.40;;
11346;SDS011;5728;42.722;23.258;2022-10-16T00:59:06;14.30;;;8.00;;
11346;SDS011;5728;42.722;23.258;2022-10-16T01:01:41;9.90;;;6.50;;
11346;SDS011;5728;42.722;23.258;2022-10-16T01:04:08;9.80;;;5.90;;
11346;SDS011;5728;42.722;23.258;2022-10-16T01:06:36;10.13;;;6.43;;
11346;SDS011;5728;42.722;23.258;2022-10-16T01:09:13;9.93;;;6.77;;
11346;SDS011;5728;42.722;23.258;2022-10-16T01:11:47;11.67;;;7.17;;
11346;SDS011;5728;42.722;23.258;2022-10-16T01:14:22;11.37;;;6.93;;
11346;SDS011;5728;42.722;23.258;2022-10-16T01:17:00;11.60;;;7.07;;
11346;SDS011;5728;42.722;23.258;2022-10-16T01:22:30;10.80;;;7.43;;
11346;SDS011;5728;42.722;23.258;2022-10-16T01:25:03;12.07;;;7.10;;
11346;SDS011;5728;42.722;23.258;2022-10-16T01:27:35;12.17;;;7.57;;
11346;SDS011;5728;42.722;23.258;2022-10-16T01:30:07;9.70;;;6.90;;
11346;SDS011;5728;42.722;23.258;2022-10-16T01:32:40;11.00;;;7.63;;
11346;SDS011;5728;42.722;23.258;2022-10-16T01:35:09;11.33;;;7.47;;
11346;SDS011;5728;42.722;23.258;2022-10-16T01:37:41;10.63;;;7.53;;
11346;SDS011;5728;42.722;23.258;2022-10-16T01:40:15;17.87;;;7.80;;
11346;SDS011;5728;42.722;23.258;2022-10-16T01:42:48;10.83;;;7.20;;
11346;SDS011;5728;42.722;23.258;2022-10-16T01:45:20;11.23;;;7.40;;
11346;SDS011;5728;42.722;23.258;2022-10-16T01:47:47;7.73;;;6.20;;
11346;SDS011;5728;42.722;23.258;2022-10-16T01:50:16;9.87;;;6.13;;
11346;SDS011;5728;42.722;23.258;2022-10-16T01:52:46;9.40;;;6.63;;
11346;SDS011;5728;42.722;23.258;2022-10-16T01:55:17;13.70;;;6.53;;
11346;SDS011;5728;42.722;23.258;2022-10-16T01:57:51;7.27;;;5.63;;
11346;SDS011;5728;42.722;23.258;2022-10-16T02:00:20;8.50;;;6.50;;
11346;SDS011;5728;42.722;23.258;2022-10-16T02:02:49;9.20;;;7.03;;
11346;SDS011;5728;42.722;23.258;2022-10-16T02:05:19;10.40;;;6.60;;
11346;SDS011;5728;42.722;23.258;2022-10-16T02:07:51;8.60;;;6.30;;
11346;SDS011;5728;42.722;23.258;2022-10-16T02:10:18;8.77;;;6.20;;
11346;SDS011;5728;42.722;23.258;2022-10-16T02:12:45;11.10;;;6.20;;
11346;SDS011;5728;42.722;23.258;2022-10-16T02:15:18;10.13;;;6.27;;
11346;SDS011;5728;42.722;23.258;2022-10-16T02:17:45;10.37;;;6.50;;
11346;SDS011;5728;42.722;23.258;2022-10-16T02:20:12;10.73;;;5.97;;
11346;SDS011;5728;42.722;23.258;2022-10-16T02:22:39;9.43;;;6.00;;
11346;SDS011;5728;42.722;23.258;2022-10-16T02:25:09;7.53;;;5.80;;
11346;SDS011;5728;42.722;23.258;2022-10-16T02:27:40;8.40;;;6.40;;
11346;SDS011;5728;42.722;23.258;2022-10-16T02:30:13;8.00;;;5.97;;
11346;SDS011;5728;42.722;23.258;2022-10-16T02:32:46;13.90;;;6.13;;
11346;SDS011;5728;42.722;23.258;2022-10-16T02:35:15;7.83;;;6.10;;
11346;SDS011;5728;42.722;23.258;2022-10-16T02:37:43;10.07;;;6.20;;
11346;SDS011;5728;42.722;23.258;2022-10-16T02:40:12;12.37;;;5.97;;
11346;SDS011;5728;42.722;23.258;2022-10-16T02:42:39;9.13;;;6.40;;
11346;SDS011;5728;42.722;23.258;2022-10-16T02:45:07;8.70;;;5.73;;
11346;SDS011;5728;42.722;23.258;2022-10-16T02:47:36;9.90;;;6.60;;
11346;SDS011;5728;42.722;23.258;2022-10-16T02:50:05;10.47;;;6.60;;
11346;SDS011;5728;42.722;23.258;2022-10-16T02:52:32;11.13;;;6.27;;
11346;SDS011;5728;42.722;23.258;2022-10-16T02:54:59;9.77;;;6.90;;
11346;SDS011;5728;42.722;23.258;2022-10-16T02:57:25;11.47;;;6.67;;
11346;SDS011;5728;42.722;23.258;2022-10-16T02:59:52;10.00;;;6.77;;
11346;SDS011;5728;42.722;23.258;2022-10-16T03:02:19;19.70;;;12.80;;
11346;SDS011;5728;42.722;23.258;2022-10-16T03:04:46;37.53;;;19.03;;
11346;SDS011;5728;42.722;23.258;2022-10-16T03:07:14;27.67;;;15.13;;
11346;SDS011;5728;42.722;23.258;2022-10-16T03:09:41;24.93;;;13.27;;
11346;SDS011;5728;42.722;23.258;2022-10-16T03:12:08;20.97;;;12.27;;
11346;SDS011;5728;42.722;23.258;2022-10-16T03:14:36;20.13;;;12.37;;
11346;SDS011;5728;42.722;23.258;2022-10-16T03:17:04;23.30;;;13.43;;
11346;SDS011;5728;42.722;23.258;2022-10-16T03:19:31;21.10;;;12.47;;
11346;SDS011;5728;42.722;23.258;2022-10-16T03:21:58;24.73;;;12.47;;
11346;SDS011;5728;42.722;23.258;2022-10-16T03:24:26;14.03;;;8.97;;
11346;SDS011;5728;42.722;23.258;2022-10-16T03:26:53;14.47;;;8.10;;
11346;SDS011;5728;42.722;23.258;2022-10-16T03:29:20;9.83;;;6.70;;
11346;SDS011;5728;42.722;23.258;2022-10-16T03:31:46;12.97;;;7.47;;
11346;SDS011;5728;42.722;23.258;2022-10-16T03:34:14;9.63;;;7.57;;
11346;SDS011;5728;42.722;23.258;2022-10-16T03:36:41;8.90;;;6.80;;
11346;SDS011;5728;42.722;23.258;2022-10-16T03:39:08;11.00;;;7.67;;
11346;SDS011;5728;42.722;23.258;2022-10-16T03:41:36;10.20;;;6.07;;
11346;SDS011;5728;42.722;23.258;2022-10-16T03:44:02;10.13;;;6.80;;
11346;SDS011;5728;42.722;23.258;2022-10-16T03:46:29;8.57;;;6.47;;
11346;SDS011;5728;42.722;23.258;2022-10-16T03:48:56;13.37;;;7.30;;
11346;SDS011;5728;42.722;23.258;2022-10-16T03:51:23;9.63;;;7.33;;
11346;SDS011;5728;42.722;23.258;2022-10-16T03:53:49;12.17;;;7.53;;
11346;SDS011;5728;42.722;23.258;2022-10-16T03:56:16;9.97;;;6.10;;
11346;SDS011;5728;42.722;23.258;2022-10-16T03:58:44;7.97;;;5.87;;
11346;SDS011;5728;42.722;23.258;2022-10-16T04:01:11;9.67;;;6.77;;
11346;SDS011;5728;42.722;23.258;2022-10-16T04:03:38;9.17;;;6.97;;
11346;SDS011;5728;42.722;23.258;2022-10-16T04:06:04;8.47;;;6.30;;
11346;SDS011;5728;42.722;23.258;2022-10-16T04:08:31;11.10;;;7.73;;
11346;SDS011;5728;42.722;23.258;2022-10-16T04:10:59;12.07;;;7.30;;
11346;SDS011;5728;42.722;23.258;2022-10-16T04:13:26;12.73;;;7.07;;
11346;SDS011;5728;42.722;23.258;2022-10-16T04:15:54;8.90;;;6.83;;
11346;SDS011;5728;42.722;23.258;2022-10-16T04:18:21;7.70;;;6.90;;
11346;SDS011;5728;42.722;23.258;2022-10-16T04:20:48;12.03;;;7.37;;
11346;SDS011;5728;42.722;23.258;2022-10-16T04:23:14;10.30;;;6.70;;
11346;SDS011;5728;42.722;23.258;2022-10-16T04:25:41;12.60;;;7.20;;
11346;SDS011;5728;42.722;23.258;2022-10-16T04:28:08;9.50;;;7.23;;
11346;SDS011;5728;42.722;23.258;2022-10-16T04:30:37;9.53;;;8.17;;
11346;SDS011;5728;42.722;23.258;2022-10-16T04:33:05;13.00;;;8.00;;
11346;SDS011;5728;42.722;23.258;2022-10-16T04:35:32;19.77;;;8.00;;
11346;SDS011;5728;42.722;23.258;2022-10-16T04:37:59;12.20;;;8.10;;
11346;SDS011;5728;42.722;23.258;2022-10-16T04:40:25;11.07;;;8.20;;
11346;SDS011;5728;42.722;23.258;2022-10-16T04:42:52;16.40;;;8.47;;
11346;SDS011;5728;42.722;23.258;2022-10-16T04:45:19;10.43;;;7.37;;
11346;SDS011;5728;42.722;23.258;2022-10-16T04:47:46;12.83;;;8.23;;
11346;SDS011;5728;42.722;23.258;2022-10-16T04:50:14;13.17;;;8.13;;
11346;SDS011;5728;42.722;23.258;2022-10-16T04:52:41;10.13;;;7.70;;
11346;SDS011;5728;42.722;23.258;2022-10-16T04:55:07;11.57;;;7.00;;
11346;SDS011;5728;42.722;23.258;2022-10-16T04:57:34;10.27;;;7.87;;
11346;SDS011;5728;42.722;23.258;2022-10-16T05:00:01;12.20;;;7.90;;
11346;SDS011;5728;42.722;23.258;2022-10-16T05:02:29;11.27;;;8.07;;
11346;SDS011;5728;42.722;23.258;2022-10-16T05:04:55;12.47;;;8.47;;
11346;SDS011;5728;42.722;23.258;2022-10-16T05:07:24;10.60;;;8.17;;
11346;SDS011;5728;42.722;23.258;2022-10-16T05:09:50;12.73;;;8.17;;
11346;SDS011;5728;42.722;23.258;2022-10-16T05:12:18;11.53;;;7.80;;
11346;SDS011;5728;42.722;23.258;2022-10-16T05:14:45;9.37;;;6.77;;
11346;SDS011;5728;42.722;23.258;2022-10-16T05:17:12;15.27;;;8.97;;
11346;SDS011;5728;42.722;23.258;2022-10-16T05:19:38;30.87;;;8.33;;
11346;SDS011;5728;42.722;23.258;2022-10-16T05:22:05;16.60;;;8.47;;
11346;SDS011;5728;42.722;23.258;2022-10-16T05:24:34;19.83;;;8.40;;
11346;SDS011;5728;42.722;23.258;2022-10-16T05:27:01;10.90;;;7.83;;
11346;SDS011;5728;42.722;23.258;2022-10-16T05:29:27;15.67;;;8.17;;
11346;SDS011;5728;42.722;23.258;2022-10-16T05:31:54;18.87;;;10.07;;
11346;SDS011;5728;42.722;23.258;2022-10-16T05:34:21;10.50;;;7.03;;
11346;SDS011;5728;42.722;23.258;2022-10-16T05:36:48;16.88;;;9.00;;
11346;SDS011;5728;42.722;23.258;2022-10-16T05:39:15;11.10;;;7.57;;
11346;SDS011;5728;42.722;23.258;2022-10-16T05:41:44;12.10;;;7.53;;
11346;SDS011;5728;42.722;23.258;2022-10-16T05:44:11;10.43;;;7.63;;
11346;SDS011;5728;42.722;23.258;2022-10-16T05:46:38;10.07;;;7.33;;
11346;SDS011;5728;42.722;23.258;2022-10-16T05:49:04;10.73;;;8.00;;
11346;SDS011;5728;42.722;23.258;2022-10-16T05:51:31;13.32;;;7.95;;
11346;SDS011;5728;42.722;23.258;2022-10-16T05:53:58;11.03;;;7.40;;
11346;SDS011;5728;42.722;23.258;2022-10-16T05:56:25;12.43;;;7.77;;
11346;SDS011;5728;42.722;23.258;2022-10-16T05:58:53;12.07;;;7.03;;
11346;SDS011;5728;42.722;23.258;2022-10-16T06:01:20;20.47;;;7.03;;
11346;SDS011;5728;42.722;23.258;2022-10-16T06:03:49;12.00;;;7.37;;
11346;SDS011;5728;42.722;23.258;2022-10-16T06:06:17;11.87;;;7.00;;
11346;SDS011;5728;42.722;23.258;2022-10-16T06:08:46;11.97;;;7.77;;
11346;SDS011;5728;42.722;23.258;2022-10-16T06:11:14;9.83;;;6.60;;
11346;SDS011;5728;42.722;23.258;2022-10-16T06:13:42;11.33;;;6.73;;
11346;SDS011;5728;42.722;23.258;2022-10-16T06:16:12;8.87;;;6.80;;
11346;SDS011;5728;42.722;23.258;2022-10-16T06:18:39;10.70;;;7.23;;
11346;SDS011;5728;42.722;23.258;2022-10-16T06:21:09;11.87;;;7.60;;
11346;SDS011;5728;42.722;23.258;2022-10-16T06:23:40;10.47;;;7.67;;
11346;SDS011;5728;42.722;23.258;2022-10-16T06:26:07;11.47;;;7.67;;
11346;SDS011;5728;42.722;23.258;2022-10-16T06:28:34;11.40;;;8.77;;
11346;SDS011;5728;42.722;23.258;2022-10-16T06:31:01;14.53;;;8.97;;
11346;SDS011;5728;42.722;23.258;2022-10-16T06:33:30;10.77;;;8.40;;
11346;SDS011;5728;42.722;23.258;2022-10-16T06:36:00;15.93;;;9.23;;
11346;SDS011;5728;42.722;23.258;2022-10-16T06:38:28;12.70;;;8.10;;
11346;SDS011;5728;42.722;23.258;2022-10-16T06:40:55;14.40;;;8.73;;
11346;SDS011;5728;42.722;23.258;2022-10-16T06:43:22;16.83;;;8.77;;
11346;SDS011;5728;42.722;23.258;2022-10-16T06:45:52;17.70;;;9.20;;
11346;SDS011;5728;42.722;23.258;2022-10-16T06:48:19;11.97;;;7.70;;
11346;SDS011;5728;42.722;23.258;2022-10-16T06:50:57;10.77;;;7.50;;
11346;SDS011;5728;42.722;23.258;2022-10-16T06:53:26;12.07;;;8.60;;
11346;SDS011;5728;42.722;23.258;2022-10-16T06:55:53;10.20;;;7.17;;
11346;SDS011;5728;42.722;23.258;2022-10-16T06:58:20;11.90;;;7.23;;
11346;SDS011;5728;42.722;23.258;2022-10-16T07:00:48;9.97;;;8.87;;
11346;SDS011;5728;42.722;23.258;2022-10-16T07:03:15;15.20;;;11.23;;
11346;SDS011;5728;42.722;23.258;2022-10-16T07:05:42;15.20;;;11.70;;
11346;SDS011;5728;42.722;23.258;2022-10-16T07:08:10;15.47;;;11.87;;
11346;SDS011;5728;42.722;23.258;2022-10-16T07:10:37;16.33;;;11.27;;
11346;SDS011;5728;42.722;23.258;2022-10-16T07:13:04;15.73;;;10.00;;
11346;SDS011;5728;42.722;23.258;2022-10-16T07:15:32;14.40;;;8.87;;
11346;SDS011;5728;42.722;23.258;2022-10-16T07:18:00;14.70;;;8.60;;
11346;SDS011;5728;42.722;23.258;2022-10-16T07:20:26;9.40;;;7.77;;
11346;SDS011;5728;42.722;23.258;2022-10-16T07:22:53;13.60;;;7.93;;
11346;SDS011;5728;42.722;23.258;2022-10-16T07:25:21;11.17;;;8.30;;
11346;SDS011;5728;42.722;23.258;2022-10-16T07:27:48;8.43;;;7.27;;
11346;SDS011;5728;42.722;23.258;2022-10-16T07:30:15;14.00;;;7.40;;
11346;SDS011;5728;42.722;23.258;2022-10-16T07:32:42;12.10;;;7.77;;
11346;SDS011;5728;42.722;23.258;2022-10-16T07:35:09;8.97;;;7.90;;
11346;SDS011;5728;42.722;23.258;2022-10-16T07:37:35;10.77;;;7.40;;
11346;SDS011;5728;42.722;23.258;2022-10-16T07:40:02;8.90;;;7.70;;
11346;SDS011;5728;42.722;23.258;2022-10-16T07:42:31;14.37;;;7.20;;
11346;SDS011;5728;42.722;23.258;2022-10-16T07:44:58;10.27;;;7.10;;
11346;SDS011;5728;42.722;23.258;2022-10-16T07:47:24;8.80;;;6.70;;
11346;SDS011;5728;42.722;23.258;2022-10-16T07:49:51;15.37;;;6.37;;
11346;SDS011;5728;42.722;23.258;2022-10-16T07:52:18;14.73;;;7.37;;
11346;SDS011;5728;42.722;23.258;2022-10-16T07:54:45;9.63;;;7.03;;
11346;SDS011;5728;42.722;23.258;2022-10-16T07:57:11;8.23;;;6.50;;
11346;SDS011;5728;42.722;23.258;2022-10-16T07:59:45;9.40;;;6.63;;
11346;SDS011;5728;42.722;23.258;2022-10-16T08:02:12;11.23;;;6.33;;
11346;SDS011;5728;42.722;23.258;2022-10-16T08:04:39;7.47;;;5.90;;
11346;SDS011;5728;42.722;23.258;2022-10-16T08:07:06;11.97;;;6.30;;
11346;SDS011;5728;42.722;23.258;2022-10-16T08:09:33;9.07;;;5.53;;
11346;SDS011;5728;42.722;23.258;2022-10-16T08:12:00;12.83;;;6.50;;
11346;SDS011;5728;42.722;23.258;2022-10-16T08:14:27;9.93;;;6.32;;
11346;SDS011;5728;42.722;23.258;2022-10-16T08:16:55;11.82;;;6.10;;
11346;SDS011;5728;42.722;23.258;2022-10-16T08:19:22;15.10;;;6.53;;
11346;SDS011;5728;42.722;23.258;2022-10-16T08:21:48;14.77;;;6.50;;
11346;SDS011;5728;42.722;23.258;2022-10-16T08:24:15;9.93;;;6.55;;
11346;SDS011;5728;42.722;23.258;2022-10-16T08:26:42;12.05;;;7.13;;
11346;SDS011;5728;42.722;23.258;2022-10-16T08:29:09;9.07;;;6.07;;
11346;SDS011;5728;42.722;23.258;2022-10-16T08:31:35;8.45;;;6.22;;
11346;SDS011;5728;42.722;23.258;2022-10-16T08:34:03;11.43;;;7.40;;
11346;SDS011;5728;42.722;23.258;2022-10-16T08:36:31;14.05;;;8.65;;
11346;SDS011;5728;42.722;23.258;2022-10-16T08:38:59;7.93;;;5.85;;
11346;SDS011;5728;42.722;23.258;2022-10-16T08:41:33;10.38;;;6.18;;
11346;SDS011;5728;42.722;23.258;2022-10-16T08:47:49;12.00;;;5.07;;
11346;SDS011;5728;42.722;23.258;2022-10-16T08:50:28;9.93;;;5.32;;
11346;SDS011;5728;42.722;23.258;2022-10-16T08:52:57;6.18;;;4.90;;
11346;SDS011;5728;42.722;23.258;2022-10-16T08:55:29;8.60;;;4.50;;
11346;SDS011;5728;42.722;23.258;2022-10-16T08:57:59;6.53;;;4.60;;
11346;SDS011;5728;42.722;23.258;2022-10-16T09:00:27;9.23;;;4.90;;
11346;SDS011;5728;42.722;23.258;2022-10-16T09:02:56;6.38;;;4.90;;
11346;SDS011;5728;42.722;23.258;2022-10-16T09:05:48;9.18;;;6.00;;
11346;SDS011;5728;42.722;23.258;2022-10-16T09:08:26;4.65;;;4.22;;
11346;SDS011;5728;42.722;23.258;2022-10-16T09:11:02;9.48;;;4.72;;
11346;SDS011;5728;42.722;23.258;2022-10-16T09:13:36;9.85;;;3.70;;
11346;SDS011;5728;42.722;23.258;2022-10-16T09:16:12;4.10;;;3.60;;
11346;SDS011;5728;42.722;23.258;2022-10-16T09:18:45;6.40;;;4.40;;
11346;SDS011;5728;42.722;23.258;2022-10-16T09:21:21;5.22;;;3.65;;
11346;SDS011;5728;42.722;23.258;2022-10-16T09:23:51;4.50;;;3.40;;
11346;SDS011;5728;42.722;23.258;2022-10-16T09:26:20;8.75;;;4.03;;
11346;SDS011;5728;42.722;23.258;2022-10-16T09:28:47;4.25;;;3.55;;
11346;SDS011;5728;42.722;23.258;2022-10-16T09:31:18;9.10;;;4.13;;
11346;SDS011;5728;42.722;23.258;2022-10-16T09:33:47;4.50;;;3.75;;
11346;SDS011;5728;42.722;23.258;2022-10-16T09:36:20;6.05;;;3.50;;
11346;SDS011;5728;42.722;23.258;2022-10-16T09:38:48;7.28;;;3.75;;
11346;SDS011;5728;42.722;23.258;2022-10-16T09:41:16;7.15;;;3.80;;
11346;SDS011;5728;42.722;23.258;2022-10-16T09:43:49;7.10;;;3.83;;
11346;SDS011;5728;42.722;23.258;2022-10-16T09:46:27;16.05;;;3.83;;
11346;SDS011;5728;42.722;23.258;2022-10-16T09:48:56;4.13;;;3.38;;
11346;SDS011;5728;42.722;23.258;2022-10-16T09:51:27;4.72;;;3.85;;
11346;SDS011;5728;42.722;23.258;2022-10-16T09:53:57;4.82;;;3.33;;
11346;SDS011;5728;42.722;23.258;2022-10-16T09:56:26;10.27;;;3.10;;
11346;SDS011;5728;42.722;23.258;2022-10-16T09:58:55;7.47;;;3.65;;
11346;SDS011;5728;42.722;23.258;2022-10-16T10:01:24;4.15;;;3.30;;
11346;SDS011;5728;42.722;23.258;2022-10-16T10:03:56;3.75;;;3.22;;
11346;SDS011;5728;42.722;23.258;2022-10-16T10:06:28;4.75;;;3.17;;
11346;SDS011;5728;42.722;23.258;2022-10-16T10:09:02;3.70;;;3.10;;
11346;SDS011;5728;42.722;23.258;2022-10-16T10:11:41;8.57;;;3.80;;
11346;SDS011;5728;42.722;23.258;2022-10-16T10:14:21;6.35;;;4.47;;
11346;SDS011;5728;42.722;23.258;2022-10-16T10:16:50;3.17;;;2.78;;
11346;SDS011;5728;42.722;23.258;2022-10-16T10:19:19;4.78;;;3.28;;
11346;SDS011;5728;42.722;23.258;2022-10-16T10:21:50;7.53;;;3.80;;
11346;SDS011;5728;42.722;23.258;2022-10-16T10:24:18;5.78;;;3.20;;
11346;SDS011;5728;42.722;23.258;2022-10-16T10:26:54;5.13;;;2.85;;
11346;SDS011;5728;42.722;23.258;2022-10-16T10:29:40;4.13;;;2.90;;
11346;SDS011;5728;42.722;23.258;2022-10-16T10:32:20;7.75;;;3.13;;
11346;SDS011;5728;42.722;23.258;2022-10-16T10:35:00;5.22;;;3.00;;
11346;SDS011;5728;42.722;23.258;2022-10-16T10:37:44;11.43;;;3.58;;
11346;SDS011;5728;42.722;23.258;2022-10-16T10:40:30;7.30;;;3.28;;
11346;SDS011;5728;42.722;23.258;2022-10-16T10:43:08;4.18;;;3.20;;
11346;SDS011;5728;42.722;23.258;2022-10-16T10:45:44;4.57;;;3.08;;
11346;SDS011;5728;42.722;23.258;2022-10-16T10:48:19;4.78;;;3.20;;
11346;SDS011;5728;42.722;23.258;2022-10-16T10:50:54;7.25;;;3.13;;
11346;SDS011;5728;42.722;23.258;2022-10-16T10:53:32;5.93;;;3.20;;
11346;SDS011;5728;42.722;23.258;2022-10-16T10:56:13;3.60;;;2.92;;
11346;SDS011;5728;42.722;23.258;2022-10-16T11:01:46;5.47;;;3.17;;
11346;SDS011;5728;42.722;23.258;2022-10-16T11:04:25;10.07;;;3.40;;
11346;SDS011;5728;42.722;23.258;2022-10-16T11:07:05;6.93;;;2.83;;
11346;SDS011;5728;42.722;23.258;2022-10-16T11:09:39;4.43;;;3.05;;
11346;SDS011;5728;42.722;23.258;2022-10-16T11:12:11;5.78;;;2.70;;
11346;SDS011;5728;42.722;23.258;2022-10-16T11:14:46;3.97;;;2.90;;
11346;SDS011;5728;42.722;23.258;2022-10-16T11:17:18;13.73;;;3.15;;
11346;SDS011;5728;42.722;23.258;2022-10-16T11:19:51;4.03;;;2.67;;
11346;SDS011;5728;42.722;23.258;2022-10-16T11:22:24;5.25;;;2.75;;
11346;SDS011;5728;42.722;23.258;2022-10-16T11:25:02;5.63;;;2.75;;
11346;SDS011;5728;42.722;23.258;2022-10-16T11:27:39;3.75;;;2.65;;
11346;SDS011;5728;42.722;23.258;2022-10-16T11:30:13;4.05;;;3.03;;
11346;SDS011;5728;42.722;23.258;2022-10-16T11:32:47;6.43;;;4.00;;
11346;SDS011;5728;42.722;23.258;2022-10-16T11:35:22;4.18;;;2.97;;
11346;SDS011;5728;42.722;23.258;2022-10-16T11:37:51;4.38;;;3.15;;
11346;SDS011;5728;42.722;23.258;2022-10-16T11:40:25;10.77;;;3.08;;
11346;SDS011;5728;42.722;23.258;2022-10-16T11:42:57;4.00;;;2.78;;
11346;SDS011;5728;42.722;23.258;2022-10-16T11:45:30;2.90;;;2.45;;
11346;SDS011;5728;42.722;23.258;2022-10-16T11:48:04;5.60;;;2.83;;
11346;SDS011;5728;42.722;23.258;2022-10-16T11:50:43;3.55;;;3.22;;
11346;SDS011;5728;42.722;23.258;2022-10-16T11:53:16;3.65;;;3.28;;
11346;SDS011;5728;42.722;23.258;2022-10-16T11:55:50;4.70;;;2.90;;
11346;SDS011;5728;42.722;23.258;2022-10-16T11:58:20;3.80;;;2.50;;
11346;SDS011;5728;42.722;23.258;2022-10-16T12:00:54;4.22;;;2.83;;
11346;SDS011;5728;42.722;23.258;2022-10-16T12:03:28;4.85;;;2.97;;
11346;SDS011;5728;42.722;23.258;2022-10-16T12:06:03;4.78;;;2.65;;
11346;SDS011;5728;42.722;23.258;2022-10-16T12:08:50;4.57;;;3.00;;
11346;SDS011;5728;42.722;23.258;2022-10-16T12:11:24;5.30;;;2.90;;
11346;SDS011;5728;42.722;23.258;2022-10-16T12:14:06;2.67;;;2.30;;
11346;SDS011;5728;42.722;23.258;2022-10-16T12:16:52;7.63;;;3.30;;
11346;SDS011;5728;42.722;23.258;2022-10-16T12:19:21;4.75;;;2.88;;
11346;SDS011;5728;42.722;23.258;2022-10-16T12:21:49;5.35;;;3.30;;
11346;SDS011;5728;42.722;23.258;2022-10-16T12:24:22;4.32;;;3.38;;
11346;SDS011;5728;42.722;23.258;2022-10-16T12:26:59;8.23;;;3.05;;
11346;SDS011;5728;42.722;23.258;2022-10-16T12:29:36;7.65;;;3.05;;
11346;SDS011;5728;42.722;23.258;2022-10-16T12:32:05;3.95;;;2.80;;
11346;SDS011;5728;42.722;23.258;2022-10-16T12:34:48;3.55;;;2.42;;
11346;SDS011;5728;42.722;23.258;2022-10-16T12:37:18;4.32;;;2.30;;
11346;SDS011;5728;42.722;23.258;2022-10-16T12:39:49;2.75;;;2.40;;
11346;SDS011;5728;42.722;23.258;2022-10-16T12:42:23;5.75;;;3.05;;
11346;SDS011;5728;42.722;23.258;2022-10-16T12:44:58;6.75;;;3.45;;
11346;SDS011;5728;42.722;23.258;2022-10-16T12:47:35;3.67;;;2.92;;
11346;SDS011;5728;42.722;23.258;2022-10-16T12:50:04;3.72;;;2.97;;
11346;SDS011;5728;42.722;23.258;2022-10-16T12:52:51;3.03;;;2.58;;
11346;SDS011;5728;42.722;23.258;2022-10-16T12:55:19;5.30;;;3.08;;
11346;SDS011;5728;42.722;23.258;2022-10-16T12:57:56;3.45;;;2.70;;
11346;SDS011;5728;42.722;23.258;2022-10-16T13:00:41;3.20;;;2.30;;
11346;SDS011;5728;42.722;23.258;2022-10-16T13:06:19;3.30;;;2.75;;
11346;SDS011;5728;42.722;23.258;2022-10-16T13:08:58;4.03;;;3.05;;
11346;SDS011;5728;42.722;23.258;2022-10-16T13:11:35;4.28;;;2.30;;
11346;SDS011;5728;42.722;23.258;2022-10-16T13:14:19;6.57;;;3.35;;
11346;SDS011;5728;42.722;23.258;2022-10-16T13:17:09;5.05;;;2.70;;
11346;SDS011;5728;42.722;23.258;2022-10-16T13:19:45;3.97;;;2.72;;
11346;SDS011;5728;42.722;23.258;2022-10-16T13:22:21;5.45;;;2.50;;
11346;SDS011;5728;42.722;23.258;2022-10-16T13:24:58;2.75;;;2.53;;
11346;SDS011;5728;42.722;23.258;2022-10-16T13:27:38;3.22;;;2.05;;
11346;SDS011;5728;42.722;23.258;2022-10-16T13:30:15;2.40;;;2.20;;
11346;SDS011;5728;42.722;23.258;2022-10-16T13:32:45;4.03;;;1.95;;
11346;SDS011;5728;42.722;23.258;2022-10-16T13:35:24;5.30;;;2.42;;
11346;SDS011;5728;42.722;23.258;2022-10-16T13:38:02;2.72;;;2.30;;
11346;SDS011;5728;42.722;23.258;2022-10-16T13:40:30;4.28;;;2.63;;
11346;SDS011;5728;42.722;23.258;2022-10-16T13:42:59;4.35;;;2.50;;
11346;SDS011;5728;42.722;23.258;2022-10-16T13:45:28;4.70;;;2.50;;
11346;SDS011;5728;42.722;23.258;2022-10-16T13:48:01;2.85;;;2.60;;
11346;SDS011;5728;42.722;23.258;2022-10-16T13:50:29;5.68;;;2.45;;
11346;SDS011;5728;42.722;23.258;2022-10-16T13:53:03;5.60;;;2.70;;
11346;SDS011;5728;42.722;23.258;2022-10-16T13:55:31;3.05;;;2.28;;
11346;SDS011;5728;42.722;23.258;2022-10-16T13:58:04;8.70;;;2.72;;
11346;SDS011;5728;42.722;23.258;2022-10-16T14:00:33;2.80;;;2.20;;
11346;SDS011;5728;42.722;23.258;2022-10-16T14:03:01;2.60;;;2.20;;
11346;SDS011;5728;42.722;23.258;2022-10-16T14:05:28;3.83;;;2.55;;
11346;SDS011;5728;42.722;23.258;2022-10-16T14:07:55;2.75;;;2.17;;
11346;SDS011;5728;42.722;23.258;2022-10-16T14:10:25;4.25;;;2.80;;
11346;SDS011;5728;42.722;23.258;2022-10-16T14:12:58;2.83;;;2.30;;
11346;SDS011;5728;42.722;23.258;2022-10-16T14:15:26;2.97;;;2.15;;
11346;SDS011;5728;42.722;23.258;2022-10-16T14:17:56;3.05;;;2.40;;
11346;SDS011;5728;42.722;23.258;2022-10-16T14:20:24;2.50;;;2.30;;
11346;SDS011;5728;42.722;23.258;2022-10-16T14:23:00;5.10;;;2.67;;
11346;SDS011;5728;42.722;23.258;2022-10-16T14:25:29;3.80;;;3.00;;
11346;SDS011;5728;42.722;23.258;2022-10-16T14:27:58;7.55;;;3.42;;
11346;SDS011;5728;42.722;23.258;2022-10-16T14:30:27;3.88;;;3.03;;
11346;SDS011;5728;42.722;23.258;2022-10-16T14:32:55;4.28;;;3.22;;
11346;SDS011;5728;42.722;23.258;2022-10-16T14:35:26;4.63;;;2.90;;
11346;SDS011;5728;42.722;23.258;2022-10-16T14:37:54;5.68;;;2.40;;
11346;SDS011;5728;42.722;23.258;2022-10-16T14:40:23;5.90;;;2.83;;
11346;SDS011;5728;42.722;23.258;2022-10-16T14:42:52;4.25;;;2.60;;
11346;SDS011;5728;42.722;23.258;2022-10-16T14:45:19;3.92;;;2.72;;
11346;SDS011;5728;42.722;23.258;2022-10-16T14:47:48;3.35;;;2.40;;
11346;SDS011;5728;42.722;23.258;2022-10-16T14:50:18;3.88;;;2.55;;
11346;SDS011;5728;42.722;23.258;2022-10-16T14:52:45;4.82;;;2.58;;
11346;SDS011;5728;42.722;23.258;2022-10-16T14:55:12;3.30;;;2.70;;
11346;SDS011;5728;42.722;23.258;2022-10-16T14:57:39;6.25;;;2.60;;
11346;SDS011;5728;42.722;23.258;2022-10-16T15:00:10;10.15;;;2.58;;
11346;SDS011;5728;42.722;23.258;2022-10-16T15:02:42;4.40;;;2.40;;
11346;SDS011;5728;42.722;23.258;2022-10-16T15:05:12;2.72;;;2.00;;
11346;SDS011;5728;42.722;23.258;2022-10-16T15:07:43;3.85;;;2.72;;
11346;SDS011;5728;42.722;23.258;2022-10-16T15:10:10;6.50;;;2.60;;
11346;SDS011;5728;42.722;23.258;2022-10-16T15:12:38;3.95;;;2.70;;